San Perlita, Texas
Current Conditions -  °F | °C
As of 10:52 AM on Sunday 23 Nov 2014 (Local Time) from KHRL Reporting Station
Clear Clear  
Wind Chill: 72°   Ceiling: Unl
Heat Index: 72°   Visibility: 10mi
Dew Point: 67°   Wind: 6mph
Humidity: 84%   Direction: 200°SSW
Pressure: 29.77"   Gusts: NA
Location:  26.5°N, 97.64°W
Report Text: KHRL 231652Z 20005KT 10SM CLR 22/19 A2977 RMK AO2 SLP080 T02220194
Loading
Personal Weather Stations






























Interactive Weather Map New forecast layout! Learn more

10-Day Weather Forecast

Advertisements
Track Severe Weather on mobile